Time;durP1;ratioP1;P1;durP2;ratioP2;P2;SDS_P1;SDS_P2;PMS_P1;PMS_P2;Temp;Humidity;BMP_temperature;BMP_pressure;BME280_temperature;BME280_humidity;BME280_pressure;Samples;Min_cycle;Max_cycle;Signal;HPM_P1;HPM_P2
2022/06/17 00:00:26;;;;;;;6.03;4.57;;;15.20;69.00;;;;;;5066872;28;20882;-60
2022/06/17 00:02:53;;;;;;;4.50;3.60;;;15.10;69.40;;;;;;5071647;28;20467;-61
2022/06/17 00:05:21;;;;;;;6.97;4.50;;;15.10;70.20;;;;;;5073755;28;20453;-61
2022/06/17 00:07:48;;;;;;;5.87;4.40;;;15.00;70.80;;;;;;5073614;28;20853;-61
2022/06/17 00:10:22;;;;;;;5.53;4.40;;;14.90;71.80;;;;;;5073080;28;20859;-62
2022/06/17 00:12:51;;;;;;;9.27;4.50;;;14.90;72.70;;;;;;5055688;28;20877;-62
2022/06/17 00:15:19;;;;;;;6.17;4.27;;;14.80;73.30;;;;;;5070465;28;20486;-63
2022/06/17 00:17:50;;;;;;;4.93;3.97;;;14.80;74.10;;;;;;5070371;28;20950;-62
2022/06/17 00:20:23;;;;;;;7.57;4.13;;;14.70;74.70;;;;;;5069134;28;21112;-62
2022/06/17 00:22:51;;;;;;;5.03;3.60;;;14.70;75.30;;;;;;5070424;28;20481;-62
2022/06/17 00:25:30;;;;;;;6.90;4.30;;;14.60;75.80;;;;;;5063086;28;20503;-62
2022/06/17 00:27:59;;;;;;;5.73;3.73;;;14.60;76.40;;;;;;5063539;28;21128;-62
2022/06/17 00:30:29;;;;;;;5.70;3.80;;;14.60;76.80;;;;;;5070185;28;20462;-59
2022/06/17 00:32:58;;;;;;;6.57;5.07;;;14.60;77.30;;;;;;5070679;28;20539;-60
2022/06/17 00:35:29;;;;;;;4.70;4.00;;;14.60;78.20;;;;;;5069580;28;20513;-63
2022/06/17 00:37:56;;;;;;;4.57;4.17;;;14.50;79.60;;;;;;5065815;28;20449;-61
2022/06/17 00:40:27;;;;;;;5.13;4.40;;;14.50;81.00;;;;;;5051724;28;20467;-62
2022/06/17 00:42:55;;;;;;;5.03;4.53;;;14.40;82.40;;;;;;5063157;28;20979;-62
2022/06/17 00:45:30;;;;;;;6.60;5.10;;;14.40;84.10;;;;;;5069966;28;20517;-62
2022/06/17 00:48:02;;;;;;;7.90;4.03;;;14.30;85.50;;;;;;5052505;28;20471;-61
2022/06/17 00:50:35;;;;;;;6.50;4.73;;;14.20;87.20;;;;;;5069937;28;20461;-62
2022/06/17 00:53:14;;;;;;;5.57;5.00;;;14.10;88.40;;;;;;5070415;28;20483;-61
2022/06/17 00:55:46;;;;;;;5.93;4.73;;;14.10;89.50;;;;;;5075231;28;20485;-61
2022/06/17 00:58:20;;;;;;;7.43;4.70;;;14.10;90.20;;;;;;5058012;28;20464;-61
2022/06/17 01:00:50;;;;;;;6.20;4.73;;;14.10;90.50;;;;;;5064120;28;20462;-61
2022/06/17 01:03:21;;;;;;;6.47;4.70;;;14.00;90.70;;;;;;5065062;28;21053;-62
2022/06/17 01:05:52;;;;;;;6.90;4.53;;;14.00;90.90;;;;;;5060907;28;20458;-63
2022/06/17 01:11:12;;;;;;;5.80;5.20;;;13.90;91.20;;;;;;5065735;28;20454;-61
2022/06/17 01:13:39;;;;;;;5.27;4.60;;;13.90;91.10;;;;;;5067205;28;20490;-61
2022/06/17 01:16:09;;;;;;;4.93;4.43;;;13.80;91.10;;;;;;5072778;28;20504;-65
2022/06/17 01:18:39;;;;;;;5.47;4.50;;;13.80;91.10;;;;;;5072829;28;20458;-62
2022/06/17 01:21:14;;;;;;;5.47;4.47;;;13.80;91.30;;;;;;5068780;28;20528;-61
2022/06/17 01:23:43;;;;;;;6.33;4.43;;;13.70;91.40;;;;;;5065074;28;20488;-60
2022/06/17 01:26:11;;;;;;;6.73;5.40;;;13.70;91.60;;;;;;5070363;28;20544;-60
2022/06/17 01:28:38;;;;;;;7.43;4.80;;;13.60;91.90;;;;;;5073432;28;20483;-61
2022/06/17 01:31:08;;;;;;;5.47;4.97;;;13.60;92.20;;;;;;5072575;28;20470;-62
2022/06/17 01:33:38;;;;;;;8.17;5.00;;;13.60;92.40;;;;;;5071700;28;20479;-61
2022/06/17 01:36:10;;;;;;;6.00;5.30;;;13.50;92.50;;;;;;5074566;28;20462;-60
2022/06/17 01:38:39;;;;;;;10.40;5.83;;;13.50;92.80;;;;;;5084953;28;20533;-61
2022/06/17 01:41:08;;;;;;;6.87;5.60;;;13.40;93.00;;;;;;5071022;28;20467;-62
2022/06/17 01:43:42;;;;;;;5.87;5.27;;;13.40;93.20;;;;;;5073609;28;20483;-61
2022/06/17 01:46:15;;;;;;;5.67;5.00;;;13.30;93.40;;;;;;5074111;28;20605;-61
2022/06/17 01:48:47;;;;;;;6.33;5.37;;;13.30;93.50;;;;;;5071615;28;20561;-63
2022/06/17 01:51:17;;;;;;;5.50;4.80;;;13.30;93.60;;;;;;5057722;28;20477;-62
2022/06/17 01:53:49;;;;;;;5.77;5.10;;;13.20;93.60;;;;;;5065590;28;20839;-62
2022/06/17 01:56:20;;;;;;;8.63;5.60;;;13.20;93.70;;;;;;5067683;28;20455;-61
2022/06/17 01:58:53;;;;;;;5.60;5.00;;;13.20;93.80;;;;;;5055160;28;20437;-61
2022/06/17 02:01:22;;;;;;;4.80;4.07;;;13.20;93.80;;;;;;5062861;28;21022;-61
2022/06/17 02:03:55;;;;;;;6.13;5.40;;;13.20;93.80;;;;;;5072457;28;20491;-61
2022/06/17 02:06:29;;;;;;;6.10;5.50;;;13.20;93.80;;;;;;5071765;28;20480;-63
2022/06/17 02:08:56;;;;;;;8.50;4.90;;;13.20;93.80;;;;;;5039435;28;21002;-61
2022/06/17 02:11:25;;;;;;;5.63;4.93;;;13.20;93.90;;;;;;5060184;28;20517;-61
2022/06/17 02:13:53;;;;;;;7.40;4.60;;;13.10;94.00;;;;;;5042621;28;20900;-61
2022/06/17 02:16:21;;;;;;;5.43;4.93;;;13.10;94.10;;;;;;5072436;28;20465;-63
2022/06/17 02:18:49;;;;;;;5.63;4.83;;;13.10;94.30;;;;;;5069444;28;21070;-63
2022/06/17 02:21:22;;;;;;;5.53;5.00;;;13.10;94.40;;;;;;5071977;28;20462;-62
2022/06/17 02:23:51;;;;;;;6.60;5.23;;;13.10;94.50;;;;;;5071171;28;20484;-63
2022/06/17 02:26:19;;;;;;;6.40;5.27;;;13.00;94.70;;;;;;5072004;28;20462;-61
2022/06/17 02:28:48;;;;;;;6.60;5.00;;;13.00;94.80;;;;;;5072208;28;21000;-64
2022/06/17 02:31:18;;;;;;;5.40;4.90;;;13.00;94.90;;;;;;5068664;28;20461;-61
2022/06/17 02:33:49;;;;;;;5.20;4.80;;;13.00;95.10;;;;;;5073751;28;20583;-61
2022/06/17 02:36:23;;;;;;;6.03;5.10;;;12.90;95.20;;;;;;5073473;28;20462;-61
2022/06/17 02:38:52;;;;;;;5.53;5.03;;;12.90;95.10;;;;;;5074721;28;20455;-62
2022/06/17 02:41:21;;;;;;;8.00;4.60;;;12.90;95.10;;;;;;5057195;28;20465;-62
2022/06/17 02:43:56;;;;;;;6.70;5.37;;;12.90;95.10;;;;;;5074331;28;20526;-62
2022/06/17 02:46:29;;;;;;;6.83;5.00;;;12.90;95.20;;;;;;5073647;28;20458;-62
2022/06/17 02:48:58;;;;;;;6.20;4.80;;;12.90;95.30;;;;;;5074207;28;21044;-61
2022/06/17 02:51:29;;;;;;;8.03;5.27;;;12.90;95.50;;;;;;5055079;28;20528;-62
2022/06/17 02:53:57;;;;;;;13.20;6.67;;;12.90;95.60;;;;;;5069160;28;20491;-61
2022/06/17 02:56:27;;;;;;;6.03;5.50;;;12.90;95.80;;;;;;5067387;28;20496;-62
2022/06/17 02:59:10;;;;;;;5.40;4.90;;;12.90;95.90;;;;;;5054052;28;20478;-61
2022/06/17 03:01:41;;;;;;;5.77;5.27;;;12.90;96.10;;;;;;5070686;28;20546;-61
2022/06/17 03:04:14;;;;;;;8.37;5.40;;;12.90;96.40;;;;;;5074322;28;21077;-61
2022/06/17 03:06:45;;;;;;;5.60;5.00;;;12.90;96.60;;;;;;5052887;28;20499;-62
2022/06/17 03:09:19;;;;;;;12.13;6.47;;;12.90;96.80;;;;;;5033775;28;20473;-61
2022/06/17 03:11:49;;;;;;;7.50;5.70;;;13.00;96.90;;;;;;5071090;28;20865;-62
2022/06/17 03:14:18;;;;;;;6.10;5.03;;;13.00;97.10;;;;;;5073418;28;20968;-63
2022/06/17 03:16:47;;;;;;;6.00;5.23;;;13.10;97.20;;;;;;5066225;28;20865;-62
2022/06/17 03:19:15;;;;;;;5.87;5.00;;;13.10;97.20;;;;;;5053788;28;21000;-62
2022/06/17 03:21:43;;;;;;;5.97;5.47;;;13.20;97.40;;;;;;5059327;28;20488;-61
2022/06/17 03:24:17;;;;;;;6.10;5.50;;;13.20;97.50;;;;;;5073465;28;20516;-61
2022/06/17 03:26:53;;;;;;;10.47;5.13;;;13.20;97.60;;;;;;5055522;28;20512;-62
2022/06/17 03:29:23;;;;;;;6.23;5.63;;;13.20;97.70;;;;;;5066950;28;20478;-61
2022/06/17 03:31:57;;;;;;;6.30;5.40;;;13.20;97.90;;;;;;5052740;28;20539;-61
2022/06/17 03:34:31;;;;;;;8.30;5.77;;;13.20;97.90;;;;;;5070566;28;20487;-62
2022/06/17 03:37:03;;;;;;;5.40;4.90;;;13.30;98.00;;;;;;5072563;28;20463;-60
2022/06/17 03:39:35;;;;;;;6.47;5.77;;;13.30;97.90;;;;;;5072653;28;20449;-61
2022/06/17 03:42:07;;;;;;;6.40;5.80;;;13.40;97.80;;;;;;5061109;28;20504;-62
2022/06/17 03:44:41;;;;;;;7.13;5.20;;;13.50;97.70;;;;;;5033432;28;20791;-62
2022/06/17 03:47:18;;;;;;;9.40;5.40;;;13.60;97.60;;;;;;5050266;28;20894;-61
2022/06/17 03:49:50;;;;;;;7.37;6.10;;;13.70;97.50;;;;;;5070912;28;20645;-62
2022/06/17 03:52:25;;;;;;;7.63;5.07;;;13.90;97.50;;;;;;5072588;28;20461;-62
2022/06/17 03:54:54;;;;;;;6.30;4.80;;;14.40;97.50;;;;;;5069719;28;21063;-61
2022/06/17 03:57:21;;;;;;;7.53;5.00;;;15.10;96.60;;;;;;5067221;28;20834;-61
2022/06/17 03:59:50;;;;;;;5.27;4.70;;;15.90;94.80;;;;;;5070961;28;20539;-61
2022/06/17 04:02:20;;;;;;;10.73;5.10;;;16.70;92.70;;;;;;5054325;28;20465;-64
2022/06/17 04:04:53;;;;;;;5.43;4.50;;;17.30;90.80;;;;;;5060842;28;20995;-61
2022/06/17 04:09:55;;;;;;;5.60;4.47;;;18.40;83.80;;;;;;5138914;27;20559;-61
2022/06/17 04:12:28;;;;;;;7.17;4.40;;;19.10;79.80;;;;;;5138893;27;20474;-60
2022/06/17 04:15:00;;;;;;;9.77;4.27;;;19.40;75.60;;;;;;5122044;28;20480;-62
2022/06/17 04:17:34;;;;;;;5.03;4.47;;;19.60;72.70;;;;;;5137415;27;20471;-60
2022/06/17 04:20:33;;;;;;;9.50;4.60;;;19.80;71.00;;;;;;5137281;27;20421;-59
2022/06/17 04:23:11;;;;;;;5.00;4.07;;;20.30;67.30;;;;;;5129118;27;20476;-62
2022/06/17 04:25:44;;;;;;;5.07;4.57;;;20.80;64.40;;;;;;5122041;28;20501;-61
2022/06/17 04:28:15;;;;;;;6.73;3.67;;;21.10;61.80;;;;;;5124596;27;20466;-61
2022/06/17 04:30:44;;;;;;;6.93;4.17;;;21.00;60.80;;;;;;5123867;27;20980;-63
2022/06/17 04:33:23;;;;;;;7.47;4.23;;;21.00;60.50;;;;;;5127923;28;20476;-61
2022/06/17 04:35:54;;;;;;;5.27;4.77;;;21.10;59.60;;;;;;5130092;27;20487;-61
2022/06/17 04:38:22;;;;;;;6.07;4.17;;;21.00;59.20;;;;;;5131723;27;20417;-62
2022/06/17 04:40:55;;;;;;;4.93;3.80;;;20.70;59.40;;;;;;5130185;27;20970;-61
2022/06/17 04:43:30;;;;;;;11.07;3.70;;;20.30;59.70;;;;;;5122305;27;20534;-62
2022/06/17 04:46:02;;;;;;;5.87;3.70;;;19.80;60.60;;;;;;5110632;28;20429;-63
2022/06/17 04:48:29;;;;;;;4.17;3.70;;;19.50;61.90;;;;;;5109796;28;20515;-62
2022/06/17 04:50:57;;;;;;;4.07;3.67;;;19.50;62.50;;;;;;5110194;28;20449;-62
2022/06/17 04:53:25;;;;;;;5.43;3.60;;;19.60;62.60;;;;;;5110317;28;20476;-63
2022/06/17 04:55:54;;;;;;;6.53;3.60;;;19.70;62.80;;;;;;5110143;28;20448;-64
2022/06/17 04:58:25;;;;;;;5.30;3.83;;;20.00;62.40;;;;;;5110402;28;20498;-63
2022/06/17 05:00:57;;;;;;;4.97;3.83;;;20.40;61.70;;;;;;5110607;28;20433;-62
2022/06/17 05:03:28;;;;;;;5.30;3.70;;;20.70;60.60;;;;;;5122012;28;20518;-63
2022/06/17 05:05:56;;;;;;;4.27;3.73;;;20.60;60.40;;;;;;5130405;27;20429;-63
2022/06/17 05:08:27;;;;;;;5.17;4.13;;;20.50;60.60;;;;;;5130441;27;21002;-63
2022/06/17 05:11:00;;;;;;;6.50;4.50;;;20.30;60.70;;;;;;5129360;27;20457;-64
2022/06/17 05:13:30;;;;;;;5.50;3.90;;;20.20;60.90;;;;;;5125634;28;20478;-62
2022/06/17 05:15:57;;;;;;;3.83;3.20;;;20.20;61.10;;;;;;5130513;27;20816;-62
2022/06/17 05:18:25;;;;;;;5.20;3.30;;;20.40;60.40;;;;;;5130260;27;20436;-63
2022/06/17 05:20:52;;;;;;;3.67;3.30;;;20.80;59.30;;;;;;5118091;27;20452;-63
2022/06/17 05:23:20;;;;;;;7.47;3.70;;;20.90;58.40;;;;;;5116506;28;20518;-63
2022/06/17 05:25:49;;;;;;;4.40;3.40;;;20.90;58.10;;;;;;5116437;28;20959;-63
2022/06/17 05:28:21;;;;;;;7.83;3.70;;;20.80;58.10;;;;;;5116334;27;20477;-63
2022/06/17 05:30:52;;;;;;;5.53;3.87;;;20.70;58.30;;;;;;5110089;28;20434;-62
2022/06/17 05:33:21;;;;;;;5.03;4.50;;;20.80;58.40;;;;;;5096509;28;20553;-63
2022/06/17 05:35:49;;;;;;;4.57;3.90;;;21.10;57.90;;;;;;5096368;28;20444;-63
2022/06/17 05:38:17;;;;;;;6.93;4.23;;;21.40;57.00;;;;;;5100040;28;20449;-63
2022/06/17 05:40:44;;;;;;;3.80;3.40;;;21.50;56.30;;;;;;5103123;28;20490;-63
2022/06/17 05:43:12;;;;;;;4.30;3.90;;;21.40;56.20;;;;;;5095222;28;20509;-63
2022/06/17 05:45:41;;;;;;;5.07;3.73;;;21.30;56.20;;;;;;5095661;28;20522;-63
2022/06/17 05:48:09;;;;;;;5.87;4.13;;;21.40;55.80;;;;;;5095625;28;20583;-64
2022/06/17 05:50:36;;;;;;;8.57;4.50;;;21.50;55.50;;;;;;5095447;28;20438;-63
2022/06/17 05:53:06;;;;;;;3.80;3.33;;;21.60;55.30;;;;;;5095249;28;20526;-63
2022/06/17 05:55:35;;;;;;;5.03;4.10;;;21.70;54.40;;;;;;5095255;28;20438;-64
2022/06/17 05:58:03;;;;;;;7.50;3.30;;;21.80;53.80;;;;;;5094805;28;20872;-65
2022/06/17 06:00:31;;;;;;;6.10;3.70;;;21.90;53.20;;;;;;5112466;28;20540;-64
2022/06/17 06:03:03;;;;;;;8.50;4.77;;;22.00;52.80;;;;;;5115640;28;20547;-63
2022/06/17 06:05:33;;;;;;;5.40;4.10;;;22.10;52.40;;;;;;5115412;28;20464;-64
2022/06/17 06:08:00;;;;;;;5.63;4.53;;;22.10;52.00;;;;;;5113553;28;20469;-64
2022/06/17 06:10:28;;;;;;;5.63;3.53;;;22.20;51.70;;;;;;5116269;28;20441;-64
2022/06/17 06:12:57;;;;;;;5.37;3.60;;;22.20;51.20;;;;;;5115586;28;20506;-64
2022/06/17 06:15:27;;;;;;;8.10;3.73;;;22.00;51.30;;;;;;5113927;28;20461;-64
2022/06/17 06:17:54;;;;;;;5.70;3.30;;;21.80;51.60;;;;;;5115634;28;20456;-63
2022/06/17 06:20:24;;;;;;;5.67;4.13;;;21.80;51.70;;;;;;5103880;28;20454;-64
2022/06/17 06:22:51;;;;;;;7.13;3.93;;;21.70;51.70;;;;;;5095448;28;20441;-63
2022/06/17 06:25:19;;;;;;;4.43;3.70;;;21.70;51.80;;;;;;5095345;28;20520;-64
2022/06/17 06:27:47;;;;;;;4.33;3.13;;;21.70;51.60;;;;;;5112283;28;20469;-64
2022/06/17 06:30:22;;;;;;;25.00;19.30;;;21.70;51.30;;;;;;5115170;28;20485;-64
2022/06/17 06:32:51;;;;;;;32.70;29.40;;;21.60;51.20;;;;;;5109314;28;20515;-62
2022/06/17 06:35:19;;;;;;;8.83;6.03;;;21.60;51.20;;;;;;5099940;28;20531;-63
2022/06/17 06:37:47;;;;;;;9.07;6.90;;;21.60;50.90;;;;;;5093658;28;20986;-62
2022/06/17 06:40:15;;;;;;;16.90;14.57;;;21.60;50.50;;;;;;5094392;28;20505;-62
2022/06/17 06:42:43;;;;;;;7.30;4.50;;;21.60;50.30;;;;;;5094088;28;20468;-62
2022/06/17 06:45:16;;;;;;;6.40;4.10;;;21.60;50.10;;;;;;5094565;28;20495;-63
2022/06/17 06:47:45;;;;;;;9.17;3.60;;;21.50;50.10;;;;;;5094793;28;20426;-63
2022/06/17 06:50:15;;;;;;;10.60;4.10;;;21.30;50.10;;;;;;5094566;28;20478;-62
2022/06/17 06:52:43;;;;;;;5.90;3.60;;;21.10;50.00;;;;;;5094466;28;20951;-63
2022/06/17 06:55:15;;;;;;;7.53;2.80;;;21.10;50.00;;;;;;5094276;28;20976;-64
2022/06/17 06:57:45;;;;;;;7.20;3.63;;;21.00;50.20;;;;;;5094967;28;20521;-64
2022/06/17 07:00:16;;;;;;;4.70;3.90;;;21.10;50.30;;;;;;5094146;28;20837;-61
2022/06/17 07:02:43;;;;;;;4.00;3.13;;;21.10;50.00;;;;;;5093688;28;20896;-63
2022/06/17 07:05:11;;;;;;;6.10;3.70;;;21.20;49.50;;;;;;5093905;28;20451;-63
2022/06/17 07:07:38;;;;;;;6.83;3.30;;;21.30;49.10;;;;;;5093745;28;20495;-63
2022/06/17 07:10:07;;;;;;;7.60;6.87;;;21.30;48.90;;;;;;5093535;28;20485;-62
2022/06/17 07:12:36;;;;;;;7.10;4.90;;;21.40;48.90;;;;;;5094049;28;20452;-62
2022/06/17 07:15:04;;;;;;;11.50;9.37;;;21.50;48.60;;;;;;5093505;28;20539;-62
2022/06/17 07:17:32;;;;;;;6.17;4.53;;;21.70;48.20;;;;;;5093714;28;20601;-63
2022/06/17 07:19:59;;;;;;;9.77;8.77;;;21.90;47.90;;;;;;5093588;28;20441;-63
2022/06/17 07:22:26;;;;;;;27.70;20.67;;;22.00;47.60;;;;;;5093080;28;20493;-63
2022/06/17 07:24:54;;;;;;;16.37;11.10;;;22.10;47.50;;;;;;5093279;28;21028;-63
2022/06/17 07:27:21;;;;;;;5.60;3.23;;;22.30;47.20;;;;;;5093465;28;20441;-64
2022/06/17 07:29:50;;;;;;;5.20;3.60;;;22.30;46.70;;;;;;5093080;28;20477;-63
2022/06/17 07:32:17;;;;;;;9.47;6.27;;;22.40;46.50;;;;;;5093090;28;20933;-62
2022/06/17 07:34:45;;;;;;;4.77;3.80;;;22.40;46.50;;;;;;5097627;28;20462;-63
2022/06/17 07:39:58;;;;;;;7.33;3.30;;;22.60;45.60;;;;;;5094208;28;20402;-62
2022/06/17 07:42:37;;;;;;;5.43;2.50;;;22.60;44.90;;;;;;5093241;28;21132;-59
2022/06/17 07:45:08;;;;;;;4.90;2.80;;;22.60;44.40;;;;;;5093322;28;20426;-62
2022/06/17 07:47:36;;;;;;;6.90;3.40;;;22.70;43.90;;;;;;5093150;28;20434;-63
2022/06/17 07:50:05;;;;;;;4.60;3.03;;;22.70;43.80;;;;;;5093343;28;20477;-62
2022/06/17 07:52:33;;;;;;;4.13;3.10;;;22.70;43.90;;;;;;5093310;28;20476;-62
2022/06/17 07:55:00;;;;;;;4.90;3.00;;;22.60;44.10;;;;;;5093199;28;20465;-61
2022/06/17 07:57:27;;;;;;;4.33;3.10;;;22.50;44.40;;;;;;5093136;28;20536;-62
2022/06/17 07:59:55;;;;;;;4.50;3.30;;;22.50;44.40;;;;;;5093301;28;20442;-63
2022/06/17 08:02:26;;;;;;;2.87;2.60;;;22.60;44.90;;;;;;5092689;28;20492;-63
2022/06/17 08:04:53;;;;;;;8.60;5.40;;;22.80;44.00;;;;;;5092846;28;20470;-63
2022/06/17 08:07:21;;;;;;;8.23;3.63;;;23.00;43.90;;;;;;5093153;28;20996;-61
2022/06/17 08:09:48;;;;;;;3.10;2.60;;;23.10;43.60;;;;;;5092571;28;20492;-63
2022/06/17 08:12:15;;;;;;;4.97;3.40;;;23.10;43.30;;;;;;5093646;28;20778;-62
2022/06/17 08:14:46;;;;;;;3.20;2.60;;;22.90;43.20;;;;;;5093085;28;20466;-63
2022/06/17 08:17:14;;;;;;;3.37;3.07;;;22.90;43.10;;;;;;5093269;28;20449;-62
2022/06/17 08:19:43;;;;;;;9.43;3.20;;;22.90;43.10;;;;;;5092839;28;20488;-62
2022/06/17 08:22:11;;;;;;;3.00;2.70;;;22.90;43.10;;;;;;5093183;28;20449;-63
2022/06/17 08:24:39;;;;;;;3.17;2.87;;;23.00;42.80;;;;;;5092802;28;20840;-63
2022/06/17 08:27:07;;;;;;;3.27;2.97;;;23.10;42.80;;;;;;5092905;28;20442;-62
2022/06/17 08:29:34;;;;;;;2.57;2.37;;;23.30;42.60;;;;;;5096234;28;20478;-63
2022/06/17 08:34:44;;;;;;;5.53;2.75;;;23.80;41.90;;;;;;5110784;28;20454;-62
2022/06/17 08:37:12;;;;;;;3.57;2.77;;;23.90;41.70;;;;;;5113070;28;20241;-62
2022/06/17 08:39:39;;;;;;;9.20;5.20;;;24.10;41.60;;;;;;5113477;28;20433;-62
2022/06/17 08:42:21;;;;;;;4.50;3.30;;;24.40;41.30;;;;;;5107619;28;20465;-60
2022/06/17 08:44:52;;;;;;;3.70;3.13;;;24.60;41.00;;;;;;5112825;28;20473;-63
2022/06/17 08:47:37;;;;;;;3.47;2.70;;;24.80;40.80;;;;;;5113811;28;20430;-63
2022/06/17 08:50:32;;;;;;;4.47;2.83;;;24.90;40.30;;;;;;5113235;28;20453;-63
2022/06/17 08:53:17;;;;;;;3.70;2.40;;;24.90;40.00;;;;;;5112845;28;20881;-63
2022/06/17 08:55:50;;;;;;;4.03;2.93;;;24.90;40.00;;;;;;5122570;28;20917;-63
2022/06/17 08:58:36;;;;;;;4.40;3.60;;;24.90;40.00;;;;;;5126985;28;20414;-63
2022/06/17 09:01:12;;;;;;;6.07;4.27;;;25.20;39.50;;;;;;5129411;28;20814;-62
2022/06/17 09:03:55;;;;;;;7.20;3.30;;;25.30;39.20;;;;;;5149180;22;20471;-60
2022/06/17 09:06:35;;;;;;;3.07;2.50;;;25.40;38.90;;;;;;5075945;28;20488;-59
2022/06/17 09:09:22;;;;;;;3.83;2.73;;;25.20;39.00;;;;;;5075641;28;20484;-60
2022/06/17 09:11:57;;;;;;;2.80;2.33;;;25.10;39.10;;;;;;5075458;28;20427;-60
2022/06/17 09:14:36;;;;;;;3.60;2.60;;;25.00;38.90;;;;;;5075574;28;20542;-60
2022/06/17 09:17:14;;;;;;;3.90;2.53;;;25.10;39.10;;;;;;5075685;28;20434;-59
2022/06/17 09:19:45;;;;;;;3.67;3.00;;;25.20;38.90;;;;;;5075846;28;20431;-60
2022/06/17 09:22:19;;;;;;;3.00;2.70;;;25.10;39.00;;;;;;5075614;28;20428;-60
2022/06/17 09:24:47;;;;;;;5.13;2.90;;;25.10;39.30;;;;;;5075023;28;20554;-60
2022/06/17 09:27:20;;;;;;;3.07;2.77;;;25.00;39.30;;;;;;5075465;28;20542;-59
2022/06/17 09:30:02;;;;;;;2.93;2.27;;;25.00;39.00;;;;;;5075110;28;21027;-59
2022/06/17 09:32:35;;;;;;;5.80;3.27;;;25.10;38.90;;;;;;5074954;28;20941;-60
2022/06/17 09:35:06;;;;;;;4.63;2.90;;;25.20;38.70;;;;;;5074933;28;20536;-60
2022/06/17 09:37:40;;;;;;;4.33;2.83;;;25.50;38.40;;;;;;5075384;28;20486;-59
2022/06/17 09:40:20;;;;;;;3.73;2.70;;;25.70;37.90;;;;;;5075418;28;20609;-59
2022/06/17 09:42:54;;;;;;;3.50;3.07;;;25.90;37.70;;;;;;5074619;28;20431;-60
2022/06/17 09:45:27;;;;;;;4.63;2.90;;;26.10;36.80;;;;;;5074969;28;20546;-60
2022/06/17 09:48:03;;;;;;;4.17;2.60;;;26.30;36.40;;;;;;5074959;28;20473;-60
2022/06/17 09:50:36;;;;;;;2.97;2.63;;;26.40;36.10;;;;;;5075217;28;20466;-59
2022/06/17 09:53:11;;;;;;;3.00;2.43;;;26.40;35.80;;;;;;5074743;28;20566;-59
2022/06/17 09:55:43;;;;;;;4.00;2.67;;;26.50;36.10;;;;;;5074605;28;20488;-60
2022/06/17 09:58:20;;;;;;;3.37;2.83;;;26.60;35.40;;;;;;5074715;28;20466;-60
2022/06/17 10:00:52;;;;;;;4.17;3.23;;;26.70;35.70;;;;;;5074642;28;20576;-60
2022/06/17 10:03:23;;;;;;;2.90;2.47;;;26.80;35.90;;;;;;5074530;28;20474;-60
2022/06/17 10:06:03;;;;;;;3.03;2.27;;;26.70;35.80;;;;;;5074288;28;20454;-60
2022/06/17 10:08:53;;;;;;;6.70;2.63;;;26.80;35.60;;;;;;5074390;28;20878;-59
2022/06/17 10:11:30;;;;;;;3.93;2.90;;;26.90;35.30;;;;;;5074335;28;20525;-59
2022/06/17 10:14:08;;;;;;;4.10;2.73;;;26.80;35.40;;;;;;5073817;28;20972;-60
2022/06/17 10:19:40;;;;;;;3.70;3.20;;;26.90;35.20;;;;;;5074434;28;20837;-61
2022/06/17 10:22:18;;;;;;;3.80;3.03;;;26.80;35.50;;;;;;5073838;28;20480;-60
2022/06/17 10:25:00;;;;;;;4.33;3.00;;;26.80;35.90;;;;;;5074015;28;20544;-59
2022/06/17 10:27:49;;;;;;;3.60;2.47;;;26.90;35.60;;;;;;5073927;28;20462;-59
2022/06/17 10:30:21;;;;;;;4.53;3.07;;;27.20;35.10;;;;;;5074091;28;20494;-59
2022/06/17 10:32:52;;;;;;;3.63;2.23;;;27.50;34.40;;;;;;5077212;28;20580;-59
2022/06/17 10:35:26;;;;;;;2.73;2.37;;;27.60;34.30;;;;;;5074962;28;20463;-59
2022/06/17 10:37:56;;;;;;;3.33;3.03;;;27.50;34.40;;;;;;5073834;28;20459;-60
2022/06/17 10:40:27;;;;;;;3.23;2.20;;;27.40;34.20;;;;;;5074162;28;20484;-62
2022/06/17 10:42:57;;;;;;;3.40;3.00;;;27.30;33.80;;;;;;5074939;28;20420;-60
2022/06/17 10:45:25;;;;;;;3.50;2.63;;;27.30;33.90;;;;;;5074283;28;20467;-59
2022/06/17 10:47:59;;;;;;;3.50;2.67;;;27.30;34.10;;;;;;5073998;28;20443;-60
2022/06/17 10:50:29;;;;;;;4.77;2.43;;;27.40;34.00;;;;;;5074145;28;20495;-61
2022/06/17 10:53:04;;;;;;;5.80;2.90;;;27.40;33.70;;;;;;5073946;28;20443;-60
2022/06/17 10:55:37;;;;;;;2.73;2.20;;;27.40;33.60;;;;;;5073389;28;20561;-60
2022/06/17 10:58:11;;;;;;;4.90;2.47;;;27.20;34.20;;;;;;5073597;28;20431;-60
2022/06/17 11:00:57;;;;;;;3.00;2.80;;;27.20;33.60;;;;;;5074491;28;20428;-59
2022/06/17 11:03:28;;;;;;;3.70;2.30;;;27.50;33.20;;;;;;5073455;28;20538;-59
2022/06/17 11:06:13;;;;;;;3.87;2.83;;;27.80;33.00;;;;;;5073252;28;20926;-59
2022/06/17 11:08:43;;;;;;;2.40;2.20;;;27.80;32.70;;;;;;5073029;28;20515;-59
2022/06/17 11:14:00;;;;;;;5.33;2.27;;;27.80;32.20;;;;;;5073416;28;20806;-59
2022/06/17 11:16:28;;;;;;;3.00;2.33;;;27.60;31.80;;;;;;5073666;28;20447;-59
2022/06/17 11:18:59;;;;;;;4.50;3.10;;;27.60;31.60;;;;;;5072527;28;20568;-59
2022/06/17 11:21:31;;;;;;;3.97;2.40;;;27.60;31.40;;;;;;5073041;28;20427;-59
2022/06/17 11:24:00;;;;;;;4.53;3.60;;;27.60;31.40;;;;;;5073132;28;20583;-59
2022/06/17 11:26:31;;;;;;;3.37;2.77;;;27.60;31.90;;;;;;5073357;28;20648;-58
2022/06/17 11:29:01;;;;;;;4.90;2.87;;;27.60;32.50;;;;;;5073312;28;20459;-59
2022/06/17 11:31:35;;;;;;;3.90;2.77;;;27.80;33.10;;;;;;5073084;28;20483;-59
2022/06/17 11:34:13;;;;;;;3.23;2.70;;;28.30;33.30;;;;;;5072777;28;20558;-59
2022/06/17 11:36:58;;;;;;;3.80;3.47;;;28.50;33.10;;;;;;5073355;28;20470;-59
2022/06/17 11:39:32;;;;;;;4.20;3.80;;;28.60;33.10;;;;;;5073648;28;20795;-59
2022/06/17 11:42:03;;;;;;;5.00;2.70;;;28.70;33.10;;;;;;5073074;28;20423;-59
2022/06/17 11:44:31;;;;;;;3.97;3.63;;;29.00;32.90;;;;;;5072502;28;20467;-59
2022/06/17 11:47:01;;;;;;;4.43;2.50;;;29.30;32.60;;;;;;5072858;28;20469;-57
2022/06/17 11:49:33;;;;;;;5.43;2.97;;;29.60;32.50;;;;;;5072678;28;20514;-58
2022/06/17 11:52:03;;;;;;;4.50;2.70;;;29.80;32.30;;;;;;5072689;28;20459;-60
2022/06/17 11:54:34;;;;;;;3.80;3.10;;;29.90;32.00;;;;;;5072555;28;20835;-60
2022/06/17 11:57:15;;;;;;;8.70;3.10;;;29.80;31.80;;;;;;5073402;28;20423;-61
2022/06/17 11:59:45;;;;;;;2.60;2.37;;;29.60;31.60;;;;;;5073493;28;20554;-61
2022/06/17 12:02:13;;;;;;;3.60;2.80;;;29.20;32.10;;;;;;5072699;28;20471;-61
2022/06/17 12:04:44;;;;;;;4.47;3.90;;;28.90;32.90;;;;;;5072371;28;20479;-59
2022/06/17 12:07:31;;;;;;;5.80;3.40;;;29.00;33.30;;;;;;5072256;28;20906;-61
2022/06/17 12:10:10;;;;;;;3.97;2.70;;;29.40;33.10;;;;;;5072464;28;20431;-59
2022/06/17 12:12:39;;;;;;;2.80;2.60;;;29.70;32.70;;;;;;5072353;28;20427;-59
2022/06/17 12:15:16;;;;;;;4.33;3.00;;;29.70;32.90;;;;;;5072910;28;20462;-60
2022/06/17 12:17:44;;;;;;;4.47;3.10;;;29.50;33.10;;;;;;5072923;28;20481;-59
2022/06/17 12:20:22;;;;;;;3.27;2.97;;;29.60;33.40;;;;;;5072707;28;20521;-59
2022/06/17 12:22:58;;;;;;;4.70;2.47;;;30.10;32.90;;;;;;5072913;28;20466;-58
2022/06/17 12:25:36;;;;;;;5.07;2.97;;;30.90;31.80;;;;;;5073343;28;20497;-59
2022/06/17 12:28:15;;;;;;;3.27;2.80;;;31.10;31.50;;;;;;5072719;28;20485;-59
2022/06/17 12:30:48;;;;;;;2.97;2.63;;;31.10;31.30;;;;;;5074988;28;20898;-59
2022/06/17 12:33:23;;;;;;;3.37;3.07;;;31.00;31.00;;;;;;5076294;28;20527;-59
2022/06/17 12:35:59;;;;;;;4.13;3.00;;;30.80;31.10;;;;;;5076042;28;20431;-59
2022/06/17 12:38:36;;;;;;;3.77;3.10;;;30.50;31.40;;;;;;5075504;28;20541;-58
2022/06/17 12:41:11;;;;;;;3.90;2.63;;;30.40;31.60;;;;;;5076002;28;20492;-58
2022/06/17 12:43:47;;;;;;;3.00;2.20;;;30.40;31.50;;;;;;5075902;28;20520;-58
2022/06/17 12:46:23;;;;;;;5.37;2.50;;;30.10;31.30;;;;;;5075854;28;20450;-60
2022/06/17 12:48:57;;;;;;;4.13;2.47;;;29.60;31.80;;;;;;5076696;28;20498;-59
2022/06/17 12:54:23;;;;;;;3.20;2.50;;;29.10;32.90;;;;;;5076021;28;20502;-58
2022/06/17 12:57:02;;;;;;;2.40;2.10;;;29.40;32.50;;;;;;5076067;28;20436;-59
2022/06/17 12:59:59;;;;;;;3.30;2.50;;;29.60;32.30;;;;;;5075858;28;20978;-59
2022/06/17 13:02:36;;;;;;;6.13;2.80;;;29.80;31.60;;;;;;5067241;28;20864;-60
2022/06/17 13:05:11;;;;;;;11.60;4.67;;;29.80;31.20;;;;;;5075611;28;20474;-60
2022/06/17 13:08:08;;;;;;;4.07;2.13;;;29.70;31.20;;;;;;5075764;28;20530;-60
2022/06/17 13:10:42;;;;;;;2.10;1.90;;;29.90;31.10;;;;;;5076111;28;20475;-60
2022/06/17 13:13:28;;;;;;;2.40;2.13;;;30.00;30.70;;;;;;5075208;28;20880;-61
2022/06/17 13:16:02;;;;;;;2.90;2.60;;;29.90;30.40;;;;;;5076014;28;20485;-59
2022/06/17 13:18:38;;;;;;;2.20;2.07;;;29.70;30.80;;;;;;5076239;28;20902;-59
2022/06/17 13:21:09;;;;;;;3.57;2.27;;;29.80;31.10;;;;;;5076895;28;20920;-58
2022/06/17 13:23:43;;;;;;;2.13;1.80;;;29.80;31.00;;;;;;5076725;28;20462;-59
2022/06/17 13:26:15;;;;;;;2.93;2.10;;;29.60;31.00;;;;;;5076582;28;20436;-58
2022/06/17 13:28:51;;;;;;;4.33;2.27;;;29.50;31.00;;;;;;5076183;28;20431;-58